Time;durP1;ratioP1;P1;durP2;ratioP2;P2;SDS_P1;SDS_P2;PMS_P1;PMS_P2;Temp;Humidity;BMP_temperature;BMP_pressure;BME280_temperature;BME280_humidity;BME280_pressure;Samples;Min_cycle;Max_cycle;Signal;HPM_P1;HPM_P2
2023/06/02 00:01:14;;;;;;;6.80;4.45;;;;;;;;;;5048909;28;20424;-87
2023/06/02 00:03:42;;;;;;;9.50;4.43;;;;;;;;;;5044453;28;20522;-86
2023/06/02 00:06:09;;;;;;;8.25;4.53;;;;;;;;;;5041399;28;20068;-87
2023/06/02 00:08:38;;;;;;;7.50;4.55;;;;;;;;;;5039375;28;20030;-87
2023/06/02 00:11:05;;;;;;;12.23;4.78;;;;;;;;;;5014855;28;20474;-87
2023/06/02 00:13:30;;;;;;;7.18;4.68;;;;;;;;;;5001028;28;20115;-87
2023/06/02 00:15:56;;;;;;;7.28;4.85;;;;;;;;;;5017635;28;20491;-87
2023/06/02 00:18:25;;;;;;;11.70;4.32;;;;;;;;;;5035496;28;20033;-87
2023/06/02 00:20:51;;;;;;;8.90;4.68;;;;;;;;;;5033570;28;20033;-86
2023/06/02 00:23:16;;;;;;;8.82;4.90;;;;;;;;;;5016412;28;20033;-86
2023/06/02 00:25:42;;;;;;;7.43;4.80;;;;;;;;;;5019054;28;20099;-86
2023/06/02 00:28:08;;;;;;;5.68;4.35;;;;;;;;;;5035143;28;20025;-87
2023/06/02 00:30:34;;;;;;;11.10;4.93;;;;;;;;;;5016953;28;20659;-87
2023/06/02 00:33:01;;;;;;;7.45;4.70;;;;;;;;;;5034363;28;20111;-87
2023/06/02 00:35:27;;;;;;;8.02;4.18;;;;;;;;;;5018071;28;20515;-86
2023/06/02 00:37:53;;;;;;;9.18;4.60;;;;;;;;;;5041618;28;20052;-87
2023/06/02 00:40:19;;;;;;;9.18;4.75;;;;;;;;;;5020489;28;20119;-87
2023/06/02 00:42:45;;;;;;;9.68;5.10;;;;;;;;;;5036134;28;20044;-86
2023/06/02 00:45:11;;;;;;;10.65;5.03;;;;;;;;;;5016987;28;20033;-87
2023/06/02 00:47:36;;;;;;;8.43;4.55;;;;;;;;;;5034829;28;20040;-87
2023/06/02 00:50:02;;;;;;;11.75;4.57;;;;;;;;;;5016915;28;20033;-87
2023/06/02 00:52:28;;;;;;;6.25;4.57;;;;;;;;;;5016575;28;20031;-86
2023/06/02 00:54:56;;;;;;;7.32;4.70;;;;;;;;;;5005618;28;20029;-87
2023/06/02 00:57:28;;;;;;;6.80;4.40;;;;;;;;;;5021142;28;20037;-87
2023/06/02 00:59:55;;;;;;;6.88;4.57;;;;;;;;;;5020658;28;20395;-87
2023/06/02 01:02:21;;;;;;;8.93;4.60;;;;;;;;;;5034223;28;20036;-86
2023/06/02 01:04:50;;;;;;;9.18;5.05;;;;;;;;;;5031264;28;20048;-87
2023/06/02 01:07:23;;;;;;;7.50;5.10;;;;;;;;;;5007503;28;20040;-87
2023/06/02 01:09:52;;;;;;;7.47;4.70;;;;;;;;;;5008855;28;20498;-86
2023/06/02 01:12:18;;;;;;;8.75;4.72;;;;;;;;;;5022525;28;20045;-87
2023/06/02 01:14:44;;;;;;;6.47;4.80;;;;;;;;;;5019899;28;20602;-87
2023/06/02 01:17:10;;;;;;;7.75;4.72;;;;;;;;;;5021473;28;20029;-87
2023/06/02 01:19:38;;;;;;;7.18;4.80;;;;;;;;;;5051395;28;20059;-87
2023/06/02 01:22:05;;;;;;;8.88;4.90;;;;;;;;;;5048494;28;20072;-86
2023/06/02 01:24:40;;;;;;;6.55;4.78;;;;;;;;;;5010282;28;20384;-87
2023/06/02 01:27:12;;;;;;;7.93;4.93;;;;;;;;;;5015719;28;20033;-86
2023/06/02 01:29:39;;;;;;;7.90;5.07;;;;;;;;;;5037938;28;20063;-87
2023/06/02 01:32:28;;;;;;;9.23;5.20;;;;;;;;;;5018201;28;20038;-87
2023/06/02 01:34:59;;;;;;;7.93;4.80;;;;;;;;;;5033486;28;20041;-86
2023/06/02 01:37:26;;;;;;;8.10;5.20;;;;;;;;;;5016724;28;20526;-86
2023/06/02 01:39:53;;;;;;;8.82;5.15;;;;;;;;;;5033918;28;20101;-86
2023/06/02 01:42:21;;;;;;;8.57;4.60;;;;;;;;;;5023060;28;20068;-87
2023/06/02 01:44:48;;;;;;;7.13;5.00;;;;;;;;;;5022725;28;20041;-86
2023/06/02 01:47:13;;;;;;;8.25;5.05;;;;;;;;;;5019359;28;20055;-87
2023/06/02 01:49:39;;;;;;;8.93;5.07;;;;;;;;;;5016787;28;20108;-87
2023/06/02 01:52:05;;;;;;;11.73;4.85;;;;;;;;;;5033832;28;20038;-87
2023/06/02 01:54:31;;;;;;;6.95;4.78;;;;;;;;;;5015606;28;20040;-86
2023/06/02 01:56:56;;;;;;;7.65;5.18;;;;;;;;;;5008803;28;20526;-86
2023/06/02 01:59:22;;;;;;;8.50;4.97;;;;;;;;;;5024966;28;20025;-86
2023/06/02 02:01:49;;;;;;;7.90;4.80;;;;;;;;;;5021162;28;20048;-86
2023/06/02 02:04:14;;;;;;;7.95;5.28;;;;;;;;;;5036168;28;20037;-87
2023/06/02 02:06:42;;;;;;;6.88;4.70;;;;;;;;;;5034724;28;20179;-87
2023/06/02 02:09:07;;;;;;;8.50;4.70;;;;;;;;;;5050455;28;20045;-86
2023/06/02 02:11:34;;;;;;;6.90;4.90;;;;;;;;;;5033752;28;20041;-87
2023/06/02 02:14:00;;;;;;;11.77;5.20;;;;;;;;;;5034087;28;20103;-86
2023/06/02 02:16:25;;;;;;;10.75;5.13;;;;;;;;;;5039365;28;20090;-87
2023/06/02 02:18:52;;;;;;;7.60;5.10;;;;;;;;;;5021526;28;20048;-86
2023/06/02 02:21:18;;;;;;;9.02;5.25;;;;;;;;;;5005395;28;20033;-86
2023/06/02 02:23:44;;;;;;;6.47;4.82;;;;;;;;;;5020029;28;20136;-86
2023/06/02 02:26:10;;;;;;;10.13;5.35;;;;;;;;;;5037756;28;20025;-87
2023/06/02 02:28:37;;;;;;;8.27;4.70;;;;;;;;;;5019571;28;20045;-86
2023/06/02 02:31:04;;;;;;;8.48;4.95;;;;;;;;;;5010421;28;20067;-87
2023/06/02 02:33:30;;;;;;;8.15;4.90;;;;;;;;;;5024615;28;20037;-86
2023/06/02 02:35:55;;;;;;;6.38;4.82;;;;;;;;;;5024032;28;20410;-86
2023/06/02 02:38:21;;;;;;;6.68;4.70;;;;;;;;;;5020210;28;20035;-87
2023/06/02 02:40:47;;;;;;;9.02;5.20;;;;;;;;;;5019441;28;20533;-87
2023/06/02 02:43:13;;;;;;;8.65;5.20;;;;;;;;;;5019878;28;20041;-87
2023/06/02 02:45:38;;;;;;;9.93;4.93;;;;;;;;;;5028306;28;20039;-87
2023/06/02 02:48:05;;;;;;;10.55;5.53;;;;;;;;;;5027767;28;20966;-87
2023/06/02 02:50:30;;;;;;;8.52;4.88;;;;;;;;;;5025613;28;20060;-86
2023/06/02 02:52:56;;;;;;;9.48;4.82;;;;;;;;;;5022407;28;20030;-86
2023/06/02 02:55:21;;;;;;;10.02;5.10;;;;;;;;;;5037526;28;20033;-86
2023/06/02 02:57:47;;;;;;;7.55;4.68;;;;;;;;;;5037433;28;20037;-86
2023/06/02 03:00:13;;;;;;;8.23;5.70;;;;;;;;;;5030096;28;20035;-87
2023/06/02 03:02:39;;;;;;;8.88;5.25;;;;;;;;;;5016978;28;20033;-86
2023/06/02 03:05:06;;;;;;;9.50;5.20;;;;;;;;;;5002809;28;20039;-86
2023/06/02 03:07:34;;;;;;;7.30;5.13;;;;;;;;;;5019519;28;20407;-86
2023/06/02 03:10:00;;;;;;;8.07;5.28;;;;;;;;;;5020367;28;20033;-86
2023/06/02 03:12:26;;;;;;;7.70;5.13;;;;;;;;;;5019536;28;20033;-85
2023/06/02 03:14:53;;;;;;;7.43;5.30;;;;;;;;;;5020069;28;20037;-86
2023/06/02 03:17:20;;;;;;;7.93;5.07;;;;;;;;;;5019751;28;20036;-86
2023/06/02 03:19:45;;;;;;;7.90;5.05;;;;;;;;;;5019934;28;20036;-86
2023/06/02 03:22:12;;;;;;;7.45;4.93;;;;;;;;;;5025312;28;20056;-86
2023/06/02 03:24:39;;;;;;;10.85;5.15;;;;;;;;;;5023530;28;20044;-86
2023/06/02 03:27:13;;;;;;;8.15;5.13;;;;;;;;;;5019763;28;20034;-86
2023/06/02 03:29:39;;;;;;;9.35;5.35;;;;;;;;;;5035253;28;20057;-86
2023/06/02 03:32:10;;;;;;;8.90;5.30;;;;;;;;;;5017324;28;20418;-86
2023/06/02 03:34:40;;;;;;;7.00;5.18;;;;;;;;;;5034773;28;20096;-86
2023/06/02 03:37:07;;;;;;;12.35;5.50;;;;;;;;;;5018879;28;20065;-85
2023/06/02 03:39:32;;;;;;;8.75;5.10;;;;;;;;;;5007821;28;20060;-86
2023/06/02 03:41:59;;;;;;;10.65;5.22;;;;;;;;;;5021906;28;20048;-86
2023/06/02 03:44:24;;;;;;;7.97;5.18;;;;;;;;;;5002908;28;20495;-86
2023/06/02 03:46:51;;;;;;;9.43;5.20;;;;;;;;;;5019059;28;20509;-86
2023/06/02 03:49:17;;;;;;;7.20;5.30;;;;;;;;;;5018778;28;20036;-86
2023/06/02 03:51:43;;;;;;;9.38;5.50;;;;;;;;;;5018956;28;20120;-88
2023/06/02 03:54:09;;;;;;;7.68;5.10;;;;;;;;;;5021980;28;20032;-87
2023/06/02 03:56:35;;;;;;;7.75;5.05;;;;;;;;;;5020947;28;20033;-87
2023/06/02 03:59:01;;;;;;;9.20;5.63;;;;;;;;;;5034168;28;20510;-87
2023/06/02 04:01:27;;;;;;;8.32;5.30;;;;;;;;;;5018815;28;20037;-87
2023/06/02 04:03:54;;;;;;;6.72;4.97;;;;;;;;;;5032114;28;20633;-87
2023/06/02 04:06:21;;;;;;;9.02;5.07;;;;;;;;;;5027648;28;20056;-87
2023/06/02 04:08:47;;;;;;;6.68;5.18;;;;;;;;;;5025440;28;20045;-87
2023/06/02 04:11:14;;;;;;;9.15;5.25;;;;;;;;;;5018039;28;20407;-87
2023/06/02 04:13:40;;;;;;;8.52;5.28;;;;;;;;;;5020573;28;20025;-87
2023/06/02 04:16:07;;;;;;;8.10;5.55;;;;;;;;;;5027384;28;20444;-87
2023/06/02 04:18:36;;;;;;;7.85;5.18;;;;;;;;;;5018058;28;20128;-87
2023/06/02 04:21:03;;;;;;;8.40;5.30;;;;;;;;;;5011691;28;20096;-87
2023/06/02 04:23:28;;;;;;;8.98;5.18;;;;;;;;;;5027391;28;20067;-87
2023/06/02 04:25:54;;;;;;;7.68;5.40;;;;;;;;;;5023714;28;20099;-87
2023/06/02 04:28:20;;;;;;;7.78;5.32;;;;;;;;;;5021818;28;20041;-87
2023/06/02 04:30:53;;;;;;;9.05;5.38;;;;;;;;;;5019322;28;20033;-87
2023/06/02 04:33:19;;;;;;;10.67;5.17;;;;;;;;;;5015575;28;20442;-87
2023/06/02 04:35:46;;;;;;;8.90;4.90;;;;;;;;;;5018592;28;20518;-87
2023/06/02 04:38:13;;;;;;;8.77;5.20;;;;;;;;;;5017968;28;20741;-87
2023/06/02 04:40:39;;;;;;;9.68;5.07;;;;;;;;;;5008108;28;20032;-87
2023/06/02 04:43:06;;;;;;;8.68;5.32;;;;;;;;;;5016699;28;20042;-87
2023/06/02 04:45:32;;;;;;;8.30;5.10;;;;;;;;;;5016254;28;20073;-87
2023/06/02 04:47:58;;;;;;;8.90;5.28;;;;;;;;;;5002838;28;20037;-88
2023/06/02 04:50:24;;;;;;;9.40;5.25;;;;;;;;;;5036043;28;20045;-87
2023/06/02 04:52:49;;;;;;;9.38;5.07;;;;;;;;;;5018734;28;20084;-87
2023/06/02 04:55:15;;;;;;;8.82;5.55;;;;;;;;;;5027052;28;20031;-87
2023/06/02 04:57:43;;;;;;;12.90;5.55;;;;;;;;;;5026956;28;20462;-87
2023/06/02 05:00:13;;;;;;;11.80;5.50;;;;;;;;;;5023687;28;20056;-87
2023/06/02 05:02:39;;;;;;;10.50;5.10;;;;;;;;;;5021176;28;20048;-87
2023/06/02 05:05:06;;;;;;;9.05;5.35;;;;;;;;;;5034215;28;20045;-88
2023/06/02 05:07:33;;;;;;;13.65;5.50;;;;;;;;;;5016539;28;20045;-87
2023/06/02 05:09:59;;;;;;;10.93;5.30;;;;;;;;;;5016930;28;20034;-87
2023/06/02 05:12:25;;;;;;;11.75;4.97;;;;;;;;;;5017220;28;20038;-87
2023/06/02 05:14:53;;;;;;;10.40;5.30;;;;;;;;;;5016825;28;20048;-87
2023/06/02 05:17:22;;;;;;;9.10;4.95;;;;;;;;;;5020724;28;20074;-88
2023/06/02 05:19:49;;;;;;;8.75;5.45;;;;;;;;;;5016213;28;20036;-88
2023/06/02 05:22:15;;;;;;;11.27;5.30;;;;;;;;;;5015165;28;20032;-88
2023/06/02 05:24:41;;;;;;;7.45;5.03;;;;;;;;;;5016288;28;20025;-88
2023/06/02 05:27:07;;;;;;;8.25;5.53;;;;;;;;;;5025594;28;20600;-88
2023/06/02 05:29:33;;;;;;;9.02;4.97;;;;;;;;;;5021824;28;20041;-88
2023/06/02 05:31:58;;;;;;;7.70;5.25;;;;;;;;;;5023088;28;20450;-87
2023/06/02 05:34:24;;;;;;;8.65;5.10;;;;;;;;;;5037045;28;20042;-86
2023/06/02 05:36:49;;;;;;;7.75;4.80;;;;;;;;;;5038000;28;20037;-88
2023/06/02 05:39:15;;;;;;;9.13;5.40;;;;;;;;;;5033432;28;20032;-88
2023/06/02 05:41:42;;;;;;;8.52;5.53;;;;;;;;;;5026398;28;20082;-87
2023/06/02 05:44:08;;;;;;;13.90;5.60;;;;;;;;;;5026101;28;20037;-87
2023/06/02 05:46:33;;;;;;;6.78;4.75;;;;;;;;;;5041776;28;20605;-87
2023/06/02 05:48:59;;;;;;;8.27;5.10;;;;;;;;;;5020324;28;20488;-88
2023/06/02 05:51:26;;;;;;;9.57;5.20;;;;;;;;;;5003273;28;20530;-88
2023/06/02 05:53:52;;;;;;;8.88;5.05;;;;;;;;;;5018751;28;20071;-87
2023/06/02 05:56:18;;;;;;;7.55;5.00;;;;;;;;;;5026360;28;20465;-88
2023/06/02 05:58:46;;;;;;;6.82;4.78;;;;;;;;;;5022375;28;20030;-88
2023/06/02 06:01:12;;;;;;;7.72;4.88;;;;;;;;;;5021790;28;20041;-88
2023/06/02 06:03:37;;;;;;;6.82;4.65;;;;;;;;;;5010880;28;20033;-88
2023/06/02 06:06:04;;;;;;;6.93;4.97;;;;;;;;;;5028018;28;20029;-88
2023/06/02 06:08:31;;;;;;;7.70;4.47;;;;;;;;;;5024329;28;20063;-89
2023/06/02 06:10:57;;;;;;;7.03;5.00;;;;;;;;;;5005325;28;20041;-88
2023/06/02 06:13:23;;;;;;;9.00;5.00;;;;;;;;;;5025185;28;20044;-90
2023/06/02 06:15:49;;;;;;;7.45;4.90;;;;;;;;;;5034660;28;20033;-89
2023/06/02 06:18:15;;;;;;;6.47;4.75;;;;;;;;;;5030997;28;20095;-90
2023/06/02 06:20:41;;;;;;;8.85;5.18;;;;;;;;;;5030325;28;20025;-88
2023/06/02 06:23:08;;;;;;;9.02;5.10;;;;;;;;;;5032878;28;20033;-89
2023/06/02 06:25:33;;;;;;;8.73;5.20;;;;;;;;;;5024194;28;20056;-87
2023/06/02 06:27:59;;;;;;;11.40;5.30;;;;;;;;;;5007123;28;20470;-89
2023/06/02 06:30:27;;;;;;;9.82;5.05;;;;;;;;;;5037366;28;20040;-88
2023/06/02 06:32:57;;;;;;;9.95;5.00;;;;;;;;;;5035568;28;20136;-88
2023/06/02 06:35:23;;;;;;;8.15;5.28;;;;;;;;;;5030613;28;20117;-88
2023/06/02 06:37:49;;;;;;;9.27;4.85;;;;;;;;;;5026122;28;20040;-88
2023/06/02 06:40:15;;;;;;;9.90;5.30;;;;;;;;;;5024019;28;20104;-88
2023/06/02 06:42:41;;;;;;;6.20;4.50;;;;;;;;;;5020677;28;20036;-87
2023/06/02 06:45:12;;;;;;;7.18;4.75;;;;;;;;;;5021727;28;20029;-88
2023/06/02 06:47:38;;;;;;;9.45;5.13;;;;;;;;;;5021592;28;20088;-88
2023/06/02 06:50:04;;;;;;;8.70;4.95;;;;;;;;;;5013590;28;20037;-88
2023/06/02 06:52:29;;;;;;;8.85;5.00;;;;;;;;;;5045384;28;20040;-88
2023/06/02 06:54:55;;;;;;;10.57;4.85;;;;;;;;;;5042811;28;20029;-88
2023/06/02 06:57:20;;;;;;;8.43;4.90;;;;;;;;;;5039427;28;20044;-85
2023/06/02 06:59:49;;;;;;;8.52;4.85;;;;;;;;;;5037004;28;20515;-88
2023/06/02 07:02:15;;;;;;;9.10;4.60;;;;;;;;;;5036148;28;20037;-88
2023/06/02 07:04:40;;;;;;;8.07;4.70;;;;;;;;;;5042019;28;20025;-85
2023/06/02 07:07:06;;;;;;;8.05;4.85;;;;;;;;;;5043014;28;20041;-86
2023/06/02 07:09:32;;;;;;;12.98;4.88;;;;;;;;;;5025633;28;20041;-86
2023/06/02 07:11:57;;;;;;;8.18;4.78;;;;;;;;;;5042950;28;20037;-85
2023/06/02 07:14:23;;;;;;;9.43;4.65;;;;;;;;;;5027182;28;20100;-86
2023/06/02 07:16:54;;;;;;;8.13;4.90;;;;;;;;;;5063511;28;20033;-86
2023/06/02 07:19:21;;;;;;;10.27;4.90;;;;;;;;;;5021082;28;20099;-85
2023/06/02 07:21:46;;;;;;;7.43;5.10;;;;;;;;;;5044738;28;20029;-86
2023/06/02 07:24:12;;;;;;;6.07;4.43;;;;;;;;;;5024510;28;20037;-86
2023/06/02 07:26:37;;;;;;;8.18;4.80;;;;;;;;;;5029820;28;20048;-85
2023/06/02 07:29:03;;;;;;;10.10;5.18;;;;;;;;;;5050371;28;20427;-86
2023/06/02 07:31:28;;;;;;;8.82;5.43;;;;;;;;;;5053835;28;20041;-87
2023/06/02 07:33:54;;;;;;;7.85;4.80;;;;;;;;;;5043837;28;20491;-88
2023/06/02 07:36:19;;;;;;;8.48;5.07;;;;;;;;;;5019285;28;20041;-86
2023/06/02 07:38:45;;;;;;;5.97;4.40;;;;;;;;;;5037602;28;20041;-87
2023/06/02 07:41:10;;;;;;;9.02;4.70;;;;;;;;;;5025172;28;20064;-85
2023/06/02 07:43:36;;;;;;;7.43;4.53;;;;;;;;;;5038166;28;20060;-88
2023/06/02 07:46:03;;;;;;;8.05;4.95;;;;;;;;;;5022003;28;20034;-87
2023/06/02 07:48:28;;;;;;;6.57;4.70;;;;;;;;;;5053831;28;20487;-85
2023/06/02 07:50:54;;;;;;;7.25;4.57;;;;;;;;;;5058965;28;20102;-89
2023/06/02 07:53:19;;;;;;;6.65;4.90;;;;;;;;;;5029419;28;20075;-88
2023/06/02 07:55:45;;;;;;;6.85;4.40;;;;;;;;;;5045591;28;20495;-88
2023/06/02 07:58:10;;;;;;;7.53;4.80;;;;;;;;;;5041787;28;20037;-87
2023/06/02 08:00:38;;;;;;;8.98;4.65;;;;;;;;;;5038146;28;20053;-87
2023/06/02 08:03:04;;;;;;;9.80;4.88;;;;;;;;;;5016904;28;20463;-88
2023/06/02 08:05:29;;;;;;;9.55;5.07;;;;;;;;;;5015439;28;20072;-87
2023/06/02 08:07:55;;;;;;;7.15;4.70;;;;;;;;;;5016376;28;20068;-87
2023/06/02 08:10:21;;;;;;;9.25;5.18;;;;;;;;;;5037275;28;20037;-87
2023/06/02 08:12:47;;;;;;;10.27;5.40;;;;;;;;;;5043690;28;20040;-90
2023/06/02 08:15:13;;;;;;;13.00;5.50;;;;;;;;;;5022135;28;20057;-89
2023/06/02 08:17:39;;;;;;;9.98;5.25;;;;;;;;;;5001913;28;20038;-90
2023/06/02 08:20:06;;;;;;;8.98;5.60;;;;;;;;;;5034123;28;20422;-90
2023/06/02 08:22:33;;;;;;;8.52;5.00;;;;;;;;;;5033190;28;20037;-89
2023/06/02 08:25:00;;;;;;;10.43;5.30;;;;;;;;;;5005504;28;20033;-89
2023/06/02 08:27:27;;;;;;;9.18;4.95;;;;;;;;;;5028061;28;20376;-89
2023/06/02 08:29:53;;;;;;;9.30;5.10;;;;;;;;;;5040736;28;20057;-89
2023/06/02 08:32:24;;;;;;;7.00;4.57;;;;;;;;;;5038713;28;20041;-89
2023/06/02 08:34:50;;;;;;;7.22;4.90;;;;;;;;;;5032426;28;20037;-89
2023/06/02 08:37:18;;;;;;;10.15;4.80;;;;;;;;;;5041745;28;20036;-89
2023/06/02 08:39:46;;;;;;;7.30;4.57;;;;;;;;;;5050036;28;20094;-89
2023/06/02 08:42:13;;;;;;;9.38;4.53;;;;;;;;;;5027174;28;20514;-89
2023/06/02 08:44:41;;;;;;;7.32;4.88;;;;;;;;;;5043268;28;20371;-89
2023/06/02 08:47:11;;;;;;;9.48;5.03;;;;;;;;;;5039775;28;20053;-90
2023/06/02 08:49:41;;;;;;;8.45;4.63;;;;;;;;;;5037920;28;20037;-88
2023/06/02 08:52:11;;;;;;;7.03;4.50;;;;;;;;;;5043165;28;20064;-88
2023/06/02 08:54:40;;;;;;;10.48;4.85;;;;;;;;;;5051402;28;20082;-89
2023/06/02 08:57:05;;;;;;;5.90;4.55;;;;;;;;;;5049051;28;20029;-88
2023/06/02 08:59:32;;;;;;;6.40;4.85;;;;;;;;;;5051228;28;20087;-88
2023/06/02 09:02:00;;;;;;;13.07;4.70;;;;;;;;;;5044999;28;20075;-89
2023/06/02 09:04:27;;;;;;;9.07;4.68;;;;;;;;;;5024695;28;20399;-91
2023/06/02 09:07:11;;;;;;;9.10;4.88;;;;;;;;;;5036607;28;20009;-89
2023/06/02 09:09:45;;;;;;;7.15;4.68;;;;;;;;;;5038324;28;20083;-90
2023/06/02 09:12:11;;;;;;;7.30;4.40;;;;;;;;;;5026251;28;20033;-88
2023/06/02 09:14:39;;;;;;;7.35;4.70;;;;;;;;;;5050068;28;20082;-88
2023/06/02 09:17:27;;;;;;;5.82;4.55;;;;;;;;;;5047180;28;20041;-89
2023/06/02 09:19:55;;;;;;;10.20;4.72;;;;;;;;;;5034002;28;20033;-88
2023/06/02 09:22:21;;;;;;;7.93;4.63;;;;;;;;;;5018832;28;20034;-86
2023/06/02 09:24:46;;;;;;;11.00;4.95;;;;;;;;;;5036502;28;20032;-87
2023/06/02 09:27:16;;;;;;;10.25;4.45;;;;;;;;;;5018151;28;20045;-88
2023/06/02 09:29:43;;;;;;;7.70;4.82;;;;;;;;;;5007473;28;20088;-88
2023/06/02 09:32:16;;;;;;;8.57;4.70;;;;;;;;;;5035876;28;20075;-88
2023/06/02 09:34:46;;;;;;;9.70;4.40;;;;;;;;;;5037728;28;20041;-87
2023/06/02 09:37:13;;;;;;;9.38;4.88;;;;;;;;;;5033851;28;20091;-86
2023/06/02 09:39:49;;;;;;;9.85;4.45;;;;;;;;;;5040031;28;20190;-86
2023/06/02 09:42:16;;;;;;;8.73;5.18;;;;;;;;;;5043666;28;20062;-88
2023/06/02 09:45:04;;;;;;;9.77;4.43;;;;;;;;;;5036147;28;20045;-89
2023/06/02 09:47:36;;;;;;;7.40;4.13;;;;;;;;;;5037144;28;20100;-89
2023/06/02 09:50:02;;;;;;;6.30;3.75;;;;;;;;;;5039594;28;20041;-88
2023/06/02 09:52:27;;;;;;;8.30;3.28;;;;;;;;;;5039615;28;20088;-87
2023/06/02 09:54:53;;;;;;;7.80;3.30;;;;;;;;;;5040202;28;20118;-88
2023/06/02 09:57:18;;;;;;;6.68;3.35;;;;;;;;;;5039340;28;20056;-88
2023/06/02 09:59:45;;;;;;;9.10;3.25;;;;;;;;;;5030755;28;20053;-87
2023/06/02 10:02:11;;;;;;;6.88;3.65;;;;;;;;;;5056832;28;20040;-88
2023/06/02 10:04:37;;;;;;;7.97;3.40;;;;;;;;;;5035727;28;20034;-88
2023/06/02 10:07:20;;;;;;;6.93;3.38;;;;;;;;;;5031401;28;20041;-87
2023/06/02 10:09:48;;;;;;;;;;;;;;;;;;5047862;28;20406;-86
2023/06/02 10:12:25;;;;;;;6.45;3.10;;;;;;;;;;5041728;28;19970;-89
2023/06/02 10:15:07;;;;;;;4.70;2.85;;;;;;;;;;5035863;28;20479;-85
2023/06/02 10:17:57;;;;;;;9.02;3.03;;;;;;;;;;5020228;28;20511;-87
2023/06/02 10:20:40;;;;;;;5.97;3.28;;;;;;;;;;5037411;28;20053;-88
2023/06/02 10:23:12;;;;;;;8.75;3.35;;;;;;;;;;5030707;28;20071;-87
2023/06/02 10:26:01;;;;;;;5.40;3.60;;;;;;;;;;5020779;28;20044;-87
2023/06/02 10:28:29;;;;;;;8.07;3.40;;;;;;;;;;5040362;28;20033;-88
2023/06/02 10:31:06;;;;;;;6.65;3.30;;;;;;;;;;5042649;28;20033;-89
2023/06/02 10:33:43;;;;;;;8.88;3.30;;;;;;;;;;5034812;28;20041;-88
2023/06/02 10:36:08;;;;;;;6.53;3.10;;;;;;;;;;5019829;28;20045;-88
2023/06/02 10:38:38;;;;;;;9.52;3.13;;;;;;;;;;5037406;28;20057;-86
2023/06/02 10:41:04;;;;;;;7.18;2.70;;;;;;;;;;5018137;28;20065;-86
2023/06/02 10:43:32;;;;;;;8.18;2.85;;;;;;;;;;5020635;28;20048;-88
2023/06/02 10:46:20;;;;;;;5.53;2.63;;;;;;;;;;5022834;28;20062;-87
2023/06/02 10:48:46;;;;;;;6.68;2.80;;;;;;;;;;5051108;28;20065;-87
2023/06/02 10:51:14;;;;;;;9.77;2.97;;;;;;;;;;5029767;28;20124;-87
2023/06/02 10:53:58;;;;;;;10.40;2.70;;;;;;;;;;5009476;28;20034;-89
2023/06/02 10:56:38;;;;;;;6.03;2.83;;;;;;;;;;5048706;28;20562;-89
2023/06/02 10:59:05;;;;;;;6.05;2.70;;;;;;;;;;5043765;28;20060;-88
2023/06/02 11:01:53;;;;;;;4.70;2.72;;;;;;;;;;5024287;28;20507;-88
2023/06/02 11:04:31;;;;;;;6.53;2.90;;;;;;;;;;5003162;28;20013;-88
2023/06/02 11:07:17;;;;;;;6.57;2.88;;;;;;;;;;5013090;28;20068;-85
2023/06/02 11:09:47;;;;;;;5.35;2.70;;;;;;;;;;5036643;28;20033;-84
2023/06/02 11:12:13;;;;;;;5.28;2.55;;;;;;;;;;5039381;28;20042;-87
2023/06/02 11:15:01;;;;;;;6.03;2.95;;;;;;;;;;5039888;28;20060;-87
2023/06/02 11:17:32;;;;;;;5.97;2.80;;;;;;;;;;5027419;28;20041;-87
2023/06/02 11:19:58;;;;;;;13.38;2.80;;;;;;;;;;5036053;28;20067;-85
2023/06/02 11:22:25;;;;;;;7.75;3.00;;;;;;;;;;5056698;28;20041;-86
2023/06/02 11:24:51;;;;;;;7.35;3.03;;;;;;;;;;5055451;28;20040;-86
2023/06/02 11:27:17;;;;;;;6.43;2.88;;;;;;;;;;5051648;28;20191;-84
2023/06/02 11:29:44;;;;;;;8.13;2.88;;;;;;;;;;5046247;28;20492;-86
2023/06/02 11:32:13;;;;;;;7.43;3.20;;;;;;;;;;5023399;28;20048;-86
2023/06/02 11:34:39;;;;;;;4.93;3.10;;;;;;;;;;5040552;28;20117;-86
2023/06/02 11:37:12;;;;;;;5.63;3.10;;;;;;;;;;5022963;28;20076;-86
2023/06/02 11:39:54;;;;;;;5.50;2.95;;;;;;;;;;5037163;28;20411;-84
2023/06/02 11:42:20;;;;;;;4.97;2.60;;;;;;;;;;5036877;28;20040;-87
2023/06/02 11:44:49;;;;;;;6.72;2.78;;;;;;;;;;5038208;28;20036;-86
2023/06/02 11:47:21;;;;;;;5.20;2.90;;;;;;;;;;5041297;28;20041;-87
2023/06/02 11:49:47;;;;;;;5.88;2.70;;;;;;;;;;5039837;28;20052;-87
2023/06/02 11:52:13;;;;;;;7.25;3.17;;;;;;;;;;5024806;28;20033;-87
2023/06/02 11:54:52;;;;;;;4.43;2.75;;;;;;;;;;5022587;28;20045;-86
2023/06/02 11:57:31;;;;;;;9.23;3.10;;;;;;;;;;5038561;28;20422;-88
2023/06/02 12:00:18;;;;;;;6.47;3.05;;;;;;;;;;5044003;28;20041;-89
2023/06/02 12:02:51;;;;;;;5.90;2.92;;;;;;;;;;5029884;28;20083;-90
2023/06/02 12:05:31;;;;;;;5.97;3.05;;;;;;;;;;5021611;28;20154;-88
2023/06/02 12:08:20;;;;;;;6.38;2.90;;;;;;;;;;5021342;28;20041;-89
2023/06/02 12:10:47;;;;;;;5.10;3.15;;;;;;;;;;5037293;28;20071;-89
2023/06/02 12:13:28;;;;;;;5.70;2.90;;;;;;;;;;5028289;28;20044;-88
2023/06/02 12:15:55;;;;;;;4.68;2.78;;;;;;;;;;5041048;28;20045;-88
2023/06/02 12:18:31;;;;;;;7.53;2.92;;;;;;;;;;5023476;28;20037;-90
2023/06/02 12:20:59;;;;;;;7.85;3.20;;;;;;;;;;5037091;28;20037;-86
2023/06/02 12:23:44;;;;;;;7.60;3.05;;;;;;;;;;5034440;28;20042;-87
2023/06/02 12:26:10;;;;;;;6.38;2.90;;;;;;;;;;5026300;28;20044;-87
2023/06/02 12:28:35;;;;;;;8.25;3.03;;;;;;;;;;5044780;28;20045;-89
2023/06/02 12:31:01;;;;;;;9.48;3.15;;;;;;;;;;5042181;28;20037;-89
2023/06/02 12:33:26;;;;;;;5.93;2.72;;;;;;;;;;5029453;28;20033;-88
2023/06/02 12:35:52;;;;;;;8.35;3.22;;;;;;;;;;5045460;28;20045;-88
2023/06/02 12:38:17;;;;;;;5.65;3.13;;;;;;;;;;5043197;28;20041;-88
2023/06/02 12:40:43;;;;;;;5.28;3.17;;;;;;;;;;5022316;28;20037;-89
2023/06/02 12:43:08;;;;;;;4.10;3.00;;;;;;;;;;5019709;28;20076;-87
2023/06/02 12:45:34;;;;;;;8.30;3.20;;;;;;;;;;5017516;28;20518;-87
2023/06/02 12:48:01;;;;;;;8.43;3.35;;;;;;;;;;5041605;28;20044;-89
2023/06/02 12:50:27;;;;;;;41.90;5.82;;;;;;;;;;5023443;28;20079;-89
2023/06/02 12:52:52;;;;;;;8.07;2.95;;;;;;;;;;5033117;28;20037;-89
2023/06/02 12:55:18;;;;;;;5.13;3.00;;;;;;;;;;5030869;28;20073;-87
2023/06/02 12:57:46;;;;;;;6.60;2.92;;;;;;;;;;5027423;28;20037;-85
2023/06/02 13:00:13;;;;;;;7.65;2.90;;;;;;;;;;5037062;28;20040;-85
2023/06/02 13:02:41;;;;;;;5.35;2.92;;;;;;;;;;5060657;28;20068;-88
2023/06/02 13:05:08;;;;;;;4.60;3.08;;;;;;;;;;5042663;28;20037;-83
2023/06/02 13:07:35;;;;;;;5.05;3.15;;;;;;;;;;5040320;28;20045;-86
2023/06/02 13:10:01;;;;;;;4.43;3.20;;;;;;;;;;5055504;28;20037;-83
2023/06/02 13:12:26;;;;;;;6.10;3.08;;;;;;;;;;5035066;28;20037;-85
2023/06/02 13:14:52;;;;;;;6.20;3.20;;;;;;;;;;5030970;28;20037;-86
2023/06/02 13:17:17;;;;;;;10.07;3.28;;;;;;;;;;5048715;28;20111;-86
2023/06/02 13:19:46;;;;;;;5.30;2.90;;;;;;;;;;5062719;28;20038;-86
2023/06/02 13:22:13;;;;;;;6.18;3.38;;;;;;;;;;5057991;28;20034;-85
2023/06/02 13:24:39;;;;;;;5.40;3.20;;;;;;;;;;5044094;28;20044;-85
2023/06/02 13:27:05;;;;;;;5.65;3.00;;;;;;;;;;5046082;28;20037;-85
2023/06/02 13:29:30;;;;;;;7.55;3.10;;;;;;;;;;5030633;28;20037;-85
2023/06/02 13:31:56;;;;;;;9.88;3.47;;;;;;;;;;5047178;28;20034;-86
2023/06/02 13:34:21;;;;;;;8.57;3.38;;;;;;;;;;5047047;28;20028;-85
2023/06/02 13:36:47;;;;;;;6.38;3.40;;;;;;;;;;5046597;28;20037;-85
2023/06/02 13:39:14;;;;;;;6.60;3.25;;;;;;;;;;5045611;28;20068;-85
2023/06/02 13:41:39;;;;;;;8.40;2.97;;;;;;;;;;5027974;28;20033;-84
2023/06/02 13:44:05;;;;;;;7.35;3.45;;;;;;;;;;5045693;28;20102;-84
2023/06/02 13:46:30;;;;;;;7.38;3.20;;;;;;;;;;5045147;28;20040;-84
2023/06/02 13:48:56;;;;;;;6.00;3.20;;;;;;;;;;5049377;28;20051;-85
2023/06/02 13:51:21;;;;;;;11.20;3.20;;;;;;;;;;5062561;28;20132;-85
2023/06/02 13:53:47;;;;;;;7.07;3.15;;;;;;;;;;5060317;28;20036;-86
2023/06/02 13:56:12;;;;;;;6.20;3.38;;;;;;;;;;5040212;28;20057;-85
2023/06/02 13:58:38;;;;;;;11.20;3.40;;;;;;;;;;5054495;28;20037;-85
2023/06/02 14:01:04;;;;;;;6.80;3.10;;;;;;;;;;5051442;28;20487;-85
2023/06/02 14:03:30;;;;;;;6.00;3.25;;;;;;;;;;5048729;28;20463;-84
2023/06/02 14:05:56;;;;;;;7.38;3.13;;;;;;;;;;5054374;28;20040;-85
2023/06/02 14:08:21;;;;;;;6.53;2.92;;;;;;;;;;5045214;28;20041;-85
2023/06/02 14:10:47;;;;;;;6.82;3.00;;;;;;;;;;5042474;28;20034;-84
2023/06/02 14:13:13;;;;;;;6.63;3.20;;;;;;;;;;5056304;28;20029;-84
2023/06/02 14:15:38;;;;;;;7.45;3.20;;;;;;;;;;5054625;28;20052;-81
2023/06/02 14:18:04;;;;;;;5.88;3.40;;;;;;;;;;5054176;28;20487;-84
2023/06/02 14:20:29;;;;;;;7.63;3.33;;;;;;;;;;5033069;28;20033;-84
2023/06/02 14:22:55;;;;;;;9.45;3.15;;;;;;;;;;5048935;28;20047;-84
2023/06/02 14:25:20;;;;;;;5.95;3.17;;;;;;;;;;5048814;28;20044;-83
2023/06/02 14:27:46;;;;;;;5.43;3.20;;;;;;;;;;5049038;28;20092;-86
2023/06/02 14:30:12;;;;;;;8.07;3.35;;;;;;;;;;5049597;28;20040;-86
2023/06/02 14:32:37;;;;;;;7.40;3.40;;;;;;;;;;5048182;28;20061;-85
2023/06/02 14:35:04;;;;;;;5.40;3.25;;;;;;;;;;5048940;28;20033;-84
2023/06/02 14:37:29;;;;;;;5.63;3.20;;;;;;;;;;5049984;28;20065;-86
2023/06/02 14:39:55;;;;;;;10.20;3.50;;;;;;;;;;5066927;28;20050;-84
2023/06/02 14:42:21;;;;;;;11.18;3.30;;;;;;;;;;5047113;28;20041;-85
2023/06/02 14:44:46;;;;;;;9.30;3.40;;;;;;;;;;5060810;28;20063;-87